メインページ
METAR-TAF:

METAR-TAF

空港 :

フォール=ド=フランス, マルティニーク

マルティニーク・エメ・セゼール国際空港

緯度: 14-36N, 経度: 061-00W, 海抜: 5m

現時点の気象観測

当レポートは6分前の01:30(UTC)に作成
の風 7kt
気温 26°C
湿度 84%
気圧 1015 hPa
視程10km以上
高度2300ftの雲はほとんどない
高度3100ftの千切れ雲あり

METAR: TFFF 240130Z AUTO 09007KT 9999 FEW023 BKN031 26/23 Q1015 NOSIG

時間: 21:36 (01:36 UTC)

予報

当レポートは2時間36分前の23:00(UTC)に作成
予報は24日の 00時(UTC)から 24日の 24時(UTC)まで有効
の風 10kt
視程10km以上
高度2600ftの雲は散在している
確率 30% :
24日の 12時(UTC)から 24日の 24時(UTC)まで一時的に
視程: 4000m
高度1800ftの雲は散在している, 塔状積雲.
にわか雨

TAF: TFFF 232300Z 2400/2424 10010KT 9999 SCT026 PROB30 TEMPO 2412/2424 4000 SHRA SCT018TCU

4,000以上の空港の気象観測と天気予報(METAR報とTAF報)

利用可能な観測所は地図上に黄色い丸と赤い丸で示す。

丸の上にカーソルを重ねると観測所名を参照できる。

次にクリックすると気象観測と天気予報を参照できる。

マップの切り替え:黒色「×」印の緑ボタンをクリックして拡大、「-」印の緑ボタンをクリックして縮小、緑色の三角印をクリックして隣りの地図に切り替え


METAR-TAF: